createdAt,value
2019-03-25T00:00:42.459Z,7.08
2019-03-25T00:03:11.243Z,6.70
2019-03-25T00:05:40.287Z,6.62
2019-03-25T00:08:08.686Z,6.72
2019-03-25T00:10:37.085Z,7.00
2019-03-25T00:13:05.562Z,8.45
2019-03-25T00:15:33.966Z,8.65
2019-03-25T00:18:02.386Z,10.65
2019-03-25T00:20:31.033Z,12.82
2019-03-25T00:22:59.438Z,11.78
2019-03-25T00:25:28.172Z,12.45
2019-03-25T00:27:56.821Z,12.93
2019-03-25T00:30:25.295Z,10.63
2019-03-25T00:32:53.948Z,8.85
2019-03-25T00:35:22.385Z,8.25
2019-03-25T00:37:51.083Z,9.78
2019-03-25T00:40:19.486Z,8.40
2019-03-25T00:42:47.895Z,10.43
2019-03-25T00:45:16.531Z,7.12
2019-03-25T00:47:44.942Z,8.65
2019-03-25T00:50:13.413Z,6.95
2019-03-25T00:52:41.835Z,4.58
2019-03-25T00:55:10.623Z,4.70
2019-03-25T00:57:39.274Z,4.37
2019-03-25T01:00:08.804Z,4.67
2019-03-25T01:02:37.277Z,4.90
2019-03-25T01:05:06.215Z,4.30
2019-03-25T01:07:34.889Z,4.80
2019-03-25T01:10:05.188Z,4.95
2019-03-25T01:12:36.634Z,3.80
2019-03-25T01:15:07.085Z,3.20
2019-03-25T01:17:35.493Z,3.70
2019-03-25T01:20:06.211Z,3.85
2019-03-25T01:22:34.685Z,3.10
2019-03-25T01:25:03.249Z,3.22
2019-03-25T01:27:31.706Z,3.87
2019-03-25T01:30:00.397Z,4.72
2019-03-25T01:32:28.793Z,3.30
2019-03-25T01:34:57.182Z,3.40
2019-03-25T01:37:25.862Z,4.05
2019-03-25T01:39:54.296Z,3.02
2019-03-25T01:42:27.598Z,3.83
2019-03-25T01:44:56.087Z,3.87
2019-03-25T01:47:24.578Z,3.65
2019-03-25T01:49:52.981Z,3.30
2019-03-25T01:52:21.386Z,3.85
2019-03-25T01:54:49.800Z,3.35
2019-03-25T01:57:18.193Z,3.90
2019-03-25T01:59:46.594Z,2.95
2019-03-25T02:02:14.997Z,3.87
2019-03-25T02:04:43.645Z,3.80
2019-03-25T02:07:12.044Z,4.22
2019-03-25T02:09:40.712Z,3.20
2019-03-25T02:12:09.128Z,3.95
2019-03-25T02:14:37.839Z,3.92
2019-03-25T02:17:06.343Z,4.00
2019-03-25T02:19:34.771Z,3.40
2019-03-25T02:22:03.162Z,3.35
2019-03-25T02:24:31.575Z,3.65
2019-03-25T02:26:59.973Z,3.45
2019-03-25T02:29:28.414Z,2.90
2019-03-25T02:31:56.842Z,3.60
2019-03-25T02:34:25.658Z,3.20
2019-03-25T02:36:54.112Z,2.98
2019-03-25T02:39:22.516Z,4.05
2019-03-25T02:41:50.922Z,4.33
2019-03-25T02:44:19.357Z,3.30
2019-03-25T02:46:47.787Z,3.83
2019-03-25T02:49:16.194Z,3.80
2019-03-25T02:51:44.582Z,3.40
2019-03-25T02:54:13.021Z,3.95
2019-03-25T02:56:41.493Z,3.10
2019-03-25T02:59:09.896Z,3.35
2019-03-25T03:01:38.355Z,3.10
2019-03-25T03:04:06.769Z,3.02
2019-03-25T03:06:35.176Z,3.37
2019-03-25T03:09:04.934Z,3.20
2019-03-25T03:11:33.344Z,3.77
2019-03-25T03:14:01.782Z,4.60
2019-03-25T03:16:30.230Z,3.70
2019-03-25T03:18:58.725Z,4.08
2019-03-25T03:21:27.248Z,4.35
2019-03-25T03:23:55.622Z,4.25
2019-03-25T03:26:24.024Z,3.52
2019-03-25T03:28:52.475Z,3.35
2019-03-25T03:31:20.902Z,3.90
2019-03-25T03:33:49.357Z,3.80
2019-03-25T03:36:17.854Z,3.62
2019-03-25T03:38:46.351Z,4.78
2019-03-25T03:41:14.771Z,3.40
2019-03-25T03:43:43.159Z,4.30
2019-03-25T03:46:11.555Z,3.95
2019-03-25T03:48:39.959Z,3.50
2019-03-25T03:51:08.616Z,4.17
2019-03-25T03:53:37.239Z,3.67
2019-03-25T03:56:13.242Z,3.58
2019-03-25T03:58:36.688Z,3.72
2019-03-25T04:01:05.083Z,3.62
2019-03-25T04:03:33.467Z,3.27
2019-03-25T04:06:02.025Z,5.17
2019-03-25T04:08:30.467Z,4.20
2019-03-25T04:10:58.891Z,4.00
2019-03-25T04:13:27.330Z,4.97
2019-03-25T04:15:55.738Z,5.50
2019-03-25T04:18:24.545Z,5.40
2019-03-25T04:20:52.981Z,4.62
2019-03-25T04:23:21.419Z,4.55
2019-03-25T04:25:49.975Z,5.83
2019-03-25T04:28:18.406Z,6.15
2019-03-25T04:30:46.800Z,6.25
2019-03-25T04:33:15.207Z,6.95
2019-03-25T04:35:43.610Z,6.00
2019-03-25T04:38:12.026Z,5.40
2019-03-25T04:40:40.427Z,6.58
2019-03-25T04:43:08.826Z,5.92
2019-03-25T04:45:37.214Z,4.95
2019-03-25T04:48:05.616Z,6.03
2019-03-25T04:50:34.014Z,4.95
2019-03-25T04:53:02.418Z,6.15
2019-03-25T04:55:30.882Z,5.12
2019-03-25T04:57:59.278Z,6.45
2019-03-25T05:00:33.690Z,5.95
2019-03-25T05:03:02.158Z,5.25
2019-03-25T05:05:30.623Z,6.08
2019-03-25T05:07:59.022Z,5.75
2019-03-25T05:10:27.438Z,6.45
2019-03-25T05:12:55.817Z,6.55
2019-03-25T05:15:24.218Z,6.75
2019-03-25T05:17:52.616Z,6.42
2019-03-25T05:20:21.258Z,6.08
2019-03-25T05:22:49.662Z,7.00
2019-03-25T05:25:18.050Z,6.67
2019-03-25T05:27:46.498Z,6.62
2019-03-25T05:30:15.029Z,7.00
2019-03-25T05:32:43.422Z,6.80
2019-03-25T05:35:11.887Z,7.37
2019-03-25T05:37:40.552Z,8.50
2019-03-25T05:40:09.058Z,9.00
2019-03-25T05:42:37.508Z,8.68
2019-03-25T05:45:06.955Z,9.10
2019-03-25T05:47:35.339Z,9.15
2019-03-25T05:50:05.439Z,10.25
2019-03-25T05:52:34.167Z,9.23
2019-03-25T05:55:02.577Z,10.38
2019-03-25T05:57:31.050Z,10.40
2019-03-25T05:59:59.466Z,11.63
2019-03-25T06:02:27.870Z,10.18
2019-03-25T06:04:56.267Z,12.75
2019-03-25T06:07:24.681Z,12.82
2019-03-25T06:09:53.390Z,13.55
2019-03-25T06:12:21.791Z,14.33
2019-03-25T06:14:50.194Z,15.13
2019-03-25T06:17:18.646Z,15.00
2019-03-25T06:19:47.061Z,13.18
2019-03-25T06:22:15.698Z,14.53
2019-03-25T06:24:44.094Z,15.80
2019-03-25T06:27:14.275Z,13.32
2019-03-25T06:29:42.630Z,13.85
2019-03-25T06:32:11.269Z,12.33
2019-03-25T06:34:39.678Z,11.90
2019-03-25T06:37:08.106Z,12.70
2019-03-25T06:39:36.533Z,12.75
2019-03-25T06:42:05.010Z,11.30
2019-03-25T06:44:33.418Z,15.48
2019-03-25T06:47:01.954Z,12.15
2019-03-25T06:49:30.770Z,13.28
2019-03-25T06:51:59.183Z,13.13
2019-03-25T06:54:27.576Z,13.48
2019-03-25T06:56:55.974Z,13.93
2019-03-25T06:59:24.383Z,14.03
2019-03-25T07:01:52.909Z,15.10
2019-03-25T07:04:21.553Z,12.37
2019-03-25T07:06:49.964Z,10.78
2019-03-25T07:09:18.777Z,11.93
2019-03-25T07:11:47.400Z,13.00
2019-03-25T07:14:16.330Z,11.38
2019-03-25T07:16:44.723Z,11.05
2019-03-25T07:19:13.123Z,12.58
2019-03-25T07:21:41.525Z,11.70
2019-03-25T07:24:10.023Z,10.28
2019-03-25T07:26:38.422Z,13.28
2019-03-25T07:29:06.855Z,8.80
2019-03-25T07:31:35.310Z,8.73
2019-03-25T07:34:03.775Z,7.40
2019-03-25T07:36:32.182Z,7.97
2019-03-25T07:39:00.587Z,7.30
2019-03-25T07:41:28.990Z,8.15
2019-03-25T07:43:57.368Z,4.80
2019-03-25T07:46:26.014Z,5.33
2019-03-25T07:48:54.586Z,5.08
2019-03-25T07:51:22.987Z,7.45
2019-03-25T07:53:51.454Z,7.97
2019-03-25T07:56:19.854Z,6.92
2019-03-25T07:58:48.286Z,7.83
2019-03-25T08:01:16.670Z,7.95
2019-03-25T08:03:45.075Z,7.67
2019-03-25T08:06:13.465Z,6.92
2019-03-25T08:08:41.895Z,8.63
2019-03-25T08:11:10.267Z,6.83
2019-03-25T08:13:38.926Z,7.40
2019-03-25T08:16:07.612Z,6.78
2019-03-25T08:18:36.079Z,7.12
2019-03-25T08:21:04.576Z,8.10
2019-03-25T08:23:32.966Z,8.45
2019-03-25T08:26:01.371Z,8.03
2019-03-25T08:28:29.769Z,9.25
2019-03-25T08:30:58.167Z,7.47
2019-03-25T08:33:26.620Z,7.40
2019-03-25T08:35:55.037Z,6.67
2019-03-25T08:38:23.432Z,8.35
2019-03-25T08:40:52.071Z,8.65
2019-03-25T08:43:20.458Z,8.90
2019-03-25T08:45:48.894Z,8.45
2019-03-25T08:48:17.521Z,7.40
2019-03-25T08:50:46.911Z,7.87
2019-03-25T08:53:15.302Z,6.80
2019-03-25T08:55:43.759Z,6.40
2019-03-25T08:58:12.566Z,6.28
2019-03-25T09:00:41.035Z,6.47
2019-03-25T09:03:09.434Z,7.47
2019-03-25T09:05:37.832Z,7.03
2019-03-25T09:08:11.250Z,7.25
2019-03-25T09:10:39.655Z,8.35
2019-03-25T09:13:08.050Z,7.87
2019-03-25T09:15:36.537Z,10.18
2019-03-25T09:18:05.080Z,8.53
2019-03-25T09:20:33.702Z,9.93
2019-03-25T09:23:02.339Z,9.13
2019-03-25T09:25:31.044Z,7.35
2019-03-25T09:27:59.505Z,6.15
2019-03-25T09:30:53.599Z,5.03
2019-03-25T09:33:22.373Z,6.83
2019-03-25T09:35:51.189Z,4.70
2019-03-25T09:38:19.673Z,6.92
2019-03-25T09:40:48.105Z,5.17
2019-03-25T09:43:16.539Z,5.37
2019-03-25T09:45:44.976Z,4.92
2019-03-25T09:48:13.442Z,5.35
2019-03-25T09:50:41.873Z,5.25
2019-03-25T09:53:10.573Z,4.55
2019-03-25T09:55:39.286Z,5.25
2019-03-25T09:58:07.689Z,4.65
2019-03-25T10:00:36.220Z,4.58
2019-03-25T10:03:04.696Z,4.65
2019-03-25T10:05:33.158Z,4.20
2019-03-25T10:08:01.557Z,4.87
2019-03-25T10:10:29.962Z,4.83
2019-03-25T10:12:58.603Z,4.42
2019-03-25T10:15:26.985Z,6.17
2019-03-25T10:17:55.394Z,4.10
2019-03-25T10:20:23.774Z,3.40
2019-03-25T10:22:52.419Z,3.22
2019-03-25T10:25:20.806Z,4.17
2019-03-25T10:27:49.194Z,3.70
2019-03-25T10:30:19.629Z,2.30
2019-03-25T10:32:48.286Z,2.70
2019-03-25T10:35:17.006Z,2.67
2019-03-25T10:37:45.642Z,3.30
2019-03-25T10:40:14.782Z,1.67
2019-03-25T10:42:43.174Z,1.90
2019-03-25T10:45:13.007Z,2.60
2019-03-25T10:47:41.410Z,2.90
2019-03-25T10:50:11.995Z,2.52
2019-03-25T10:52:40.616Z,1.90
2019-03-25T10:55:09.206Z,1.45
2019-03-25T10:57:37.866Z,2.15
2019-03-25T11:00:11.671Z,1.47
2019-03-25T11:02:40.324Z,1.47
2019-03-25T11:05:09.400Z,1.98
2019-03-25T11:07:37.905Z,2.40
2019-03-25T11:10:09.023Z,1.80
2019-03-25T11:12:37.418Z,1.52
2019-03-25T11:15:09.939Z,1.75
2019-03-25T11:17:38.640Z,2.70
2019-03-25T11:20:10.878Z,2.00
2019-03-25T11:22:39.391Z,1.30
2019-03-25T11:25:08.534Z,1.62
2019-03-25T11:27:37.035Z,1.47
2019-03-25T11:30:11.205Z,2.53
2019-03-25T11:32:39.618Z,2.17
2019-03-25T11:35:09.600Z,1.32
2019-03-25T11:37:38.012Z,1.25
2019-03-25T11:40:12.909Z,1.37
2019-03-25T11:42:41.319Z,2.00
2019-03-25T11:45:10.716Z,1.40
2019-03-25T11:47:39.120Z,1.62
2019-03-25T11:50:10.073Z,1.25
2019-03-25T11:52:38.483Z,1.35
2019-03-25T11:55:07.414Z,0.90
2019-03-25T11:57:35.838Z,1.25
2019-03-25T12:00:09.102Z,1.35
2019-03-25T12:02:38.288Z,1.10
2019-03-25T12:05:07.968Z,1.17
2019-03-25T12:07:36.405Z,1.30
2019-03-25T12:10:06.857Z,1.37
2019-03-25T12:12:35.498Z,1.30
2019-03-25T12:15:06.243Z,1.47
2019-03-25T12:17:37.971Z,1.25
2019-03-25T12:20:07.178Z,1.22
2019-03-25T12:22:35.594Z,1.57
2019-03-25T12:25:05.948Z,2.37
2019-03-25T12:27:34.571Z,1.40
2019-03-25T12:30:03.917Z,1.80
2019-03-25T12:32:32.326Z,2.33
2019-03-25T12:35:01.339Z,2.10
2019-03-25T12:37:29.793Z,1.72
2019-03-25T12:39:58.234Z,1.67
2019-03-25T12:42:26.651Z,2.05
2019-03-25T12:44:55.099Z,1.95
2019-03-25T12:47:23.534Z,1.80
2019-03-25T12:49:51.959Z,1.67
2019-03-25T12:52:20.358Z,1.10
2019-03-25T12:54:49.066Z,1.45
2019-03-25T12:57:17.598Z,1.45
2019-03-25T12:59:45.998Z,1.70
2019-03-25T13:02:16.314Z,1.35
2019-03-25T13:04:44.947Z,1.50
2019-03-25T13:07:13.413Z,0.90
2019-03-25T13:09:41.810Z,1.10
2019-03-25T13:12:10.206Z,1.45
2019-03-25T13:14:39.024Z,1.60
2019-03-25T13:17:07.727Z,2.45
2019-03-25T13:19:36.194Z,0.95
2019-03-25T13:22:04.587Z,1.45
2019-03-25T13:24:33.249Z,2.47
2019-03-25T13:27:01.658Z,1.60
2019-03-25T13:29:30.090Z,1.62
2019-03-25T13:31:58.486Z,1.70
2019-03-25T13:34:26.885Z,1.80
2019-03-25T13:36:55.290Z,2.60
2019-03-25T13:39:23.715Z,2.47
2019-03-25T13:41:52.122Z,2.58
2019-03-25T13:44:20.528Z,1.60
2019-03-25T13:46:49.785Z,1.70
2019-03-25T13:49:18.331Z,2.10
2019-03-25T13:51:46.786Z,2.55
2019-03-25T13:54:15.429Z,1.60
2019-03-25T13:56:43.814Z,2.12
2019-03-25T13:59:12.293Z,1.77
2019-03-25T14:01:40.685Z,1.95
2019-03-25T14:04:09.387Z,2.02
2019-03-25T14:06:38.042Z,1.85
2019-03-25T14:09:07.538Z,1.82
2019-03-25T14:11:35.968Z,1.82
2019-03-25T14:14:04.351Z,1.52
2019-03-25T14:16:33.019Z,1.47
2019-03-25T14:19:01.450Z,1.80
2019-03-25T14:21:30.088Z,1.40
2019-03-25T14:23:58.482Z,1.80
2019-03-25T14:26:27.184Z,1.50
2019-03-25T14:28:55.588Z,1.70
2019-03-25T14:31:23.994Z,1.67
2019-03-25T14:33:52.395Z,1.50
2019-03-25T14:36:20.809Z,1.95
2019-03-25T14:38:49.274Z,1.47
2019-03-25T14:41:17.675Z,1.80
2019-03-25T14:43:46.140Z,1.55
2019-03-25T14:46:14.557Z,1.40
2019-03-25T14:48:42.959Z,1.35
2019-03-25T14:51:11.359Z,1.32
2019-03-25T14:53:45.250Z,1.45
2019-03-25T14:56:09.873Z,1.60
2019-03-25T14:58:38.284Z,1.70
2019-03-25T15:01:12.773Z,1.90
2019-03-25T15:03:41.171Z,1.90
2019-03-25T15:06:09.751Z,2.20
2019-03-25T15:08:38.183Z,1.87
2019-03-25T15:11:06.577Z,1.90
2019-03-25T15:13:35.069Z,1.45
2019-03-25T15:16:03.570Z,2.00
2019-03-25T15:18:31.978Z,1.57
2019-03-25T15:21:00.406Z,1.30
2019-03-25T15:23:29.087Z,1.12
2019-03-25T15:25:57.744Z,1.00
2019-03-25T15:28:26.142Z,1.55
2019-03-25T15:30:54.548Z,1.60
2019-03-25T15:33:22.964Z,1.30
2019-03-25T15:35:51.426Z,1.67
2019-03-25T15:38:20.073Z,1.85
2019-03-25T15:40:48.459Z,1.70
2019-03-25T15:43:16.906Z,2.17
2019-03-25T15:45:45.626Z,1.80
2019-03-25T15:48:14.296Z,3.25
2019-03-25T15:50:42.747Z,2.27
2019-03-25T15:53:11.130Z,1.90
2019-03-25T15:55:39.610Z,1.87
2019-03-25T15:58:08.067Z,2.10
2019-03-25T16:00:47.133Z,2.15
2019-03-25T16:03:06.684Z,2.45
2019-03-25T16:05:35.073Z,2.47
2019-03-25T16:08:03.497Z,2.47
2019-03-25T16:10:32.025Z,2.10
2019-03-25T16:13:00.507Z,2.10
2019-03-25T16:15:42.685Z,2.65
2019-03-25T16:18:14.270Z,2.10
2019-03-25T16:20:42.817Z,1.85
2019-03-25T16:23:11.312Z,2.10
2019-03-25T16:25:42.223Z,2.30
2019-03-25T16:28:10.940Z,2.40
2019-03-25T16:30:39.511Z,2.50
2019-03-25T16:33:07.990Z,3.08
2019-03-25T16:35:36.538Z,2.35
2019-03-25T16:38:05.201Z,3.00
2019-03-25T16:40:33.651Z,2.33
2019-03-25T16:43:02.146Z,2.33
2019-03-25T16:45:30.760Z,3.00
2019-03-25T16:47:59.199Z,3.50
2019-03-25T16:50:27.641Z,2.90
2019-03-25T16:52:56.173Z,2.92
2019-03-25T16:58:15.043Z,1.82
2019-03-25T17:00:43.793Z,2.10
2019-03-25T17:03:12.287Z,1.77
2019-03-25T17:05:42.449Z,2.30
2019-03-25T17:08:14.414Z,1.92
2019-03-25T17:10:45.613Z,2.35
2019-03-25T17:13:16.833Z,2.45
2019-03-25T17:15:45.475Z,2.65
2019-03-25T17:18:13.880Z,2.20
2019-03-25T17:20:42.597Z,2.40
2019-03-25T17:23:11.094Z,2.55
2019-03-25T17:25:48.765Z,2.70
2019-03-25T17:28:10.062Z,2.40
2019-03-25T17:30:38.526Z,2.45
2019-03-25T17:33:07.255Z,1.80
2019-03-25T17:35:35.717Z,3.15
2019-03-25T17:38:04.189Z,2.75
2019-03-25T17:40:32.744Z,2.77
2019-03-25T17:43:01.302Z,2.50
2019-03-25T17:45:32.821Z,2.90
2019-03-25T17:48:01.265Z,2.55
2019-03-25T17:50:29.663Z,2.17
2019-03-25T17:52:58.106Z,2.35
2019-03-25T17:55:26.548Z,3.35
2019-03-25T17:57:56.274Z,4.80
2019-03-25T18:00:43.249Z,3.02
2019-03-25T18:03:11.692Z,2.05
2019-03-25T18:05:40.121Z,2.90
2019-03-25T18:08:08.654Z,2.90
2019-03-25T18:10:38.927Z,3.05
2019-03-25T18:13:07.444Z,2.22
2019-03-25T18:15:35.924Z,2.62
2019-03-25T18:18:04.446Z,3.15
2019-03-25T18:20:35.586Z,3.90
2019-03-25T18:23:03.979Z,2.55
2019-03-25T18:25:32.733Z,3.42
2019-03-25T18:28:01.262Z,3.62
2019-03-25T18:30:34.264Z,3.05
2019-03-25T18:33:02.729Z,2.58
2019-03-25T18:35:31.232Z,2.52
2019-03-25T18:37:59.745Z,2.87
2019-03-25T18:40:28.115Z,1.85
2019-03-25T18:42:56.795Z,1.95
2019-03-25T18:45:25.250Z,2.35
2019-03-25T18:47:54.856Z,2.17
2019-03-25T18:50:23.331Z,3.00
2019-03-25T18:52:52.042Z,2.27
2019-03-25T18:55:20.507Z,1.82
2019-03-25T18:57:48.882Z,1.65
2019-03-25T19:00:32.087Z,2.15
2019-03-25T19:03:01.079Z,2.35
2019-03-25T19:05:29.596Z,2.37
2019-03-25T19:07:59.105Z,2.10
2019-03-25T19:10:27.946Z,2.25
2019-03-25T19:12:56.511Z,2.00
2019-03-25T19:15:25.140Z,3.15
2019-03-25T19:17:53.572Z,1.75
2019-03-25T19:20:21.962Z,3.50
2019-03-25T19:22:50.577Z,3.80
2019-03-25T19:25:18.973Z,2.40
2019-03-25T19:27:47.443Z,2.22
2019-03-25T19:30:15.950Z,2.55
2019-03-25T19:32:44.605Z,2.10
2019-03-25T19:35:13.262Z,2.50
2019-03-25T19:37:41.696Z,3.42
2019-03-25T19:40:11.210Z,7.30
2019-03-25T19:42:39.713Z,5.83
2019-03-25T19:45:08.543Z,3.83
2019-03-25T19:47:37.280Z,2.90
2019-03-25T19:50:06.709Z,2.72
2019-03-25T19:52:35.111Z,2.50
2019-03-25T19:55:03.691Z,2.85
2019-03-25T19:57:32.352Z,2.67
2019-03-25T20:00:00.971Z,2.10
2019-03-25T20:02:29.706Z,2.70
2019-03-25T20:04:58.158Z,2.15
2019-03-25T20:07:26.568Z,3.10
2019-03-25T20:09:55.231Z,2.58
2019-03-25T20:12:23.967Z,2.27
2019-03-25T20:14:52.382Z,2.40
2019-03-25T20:17:21.070Z,3.00
2019-03-25T20:19:49.509Z,2.77
2019-03-25T20:22:18.286Z,2.22
2019-03-25T20:24:46.711Z,2.80
2019-03-25T20:27:15.103Z,3.17
2019-03-25T20:29:43.853Z,3.67
2019-03-25T20:32:12.523Z,3.22
2019-03-25T20:34:41.022Z,3.50
2019-03-25T20:37:09.441Z,2.80
2019-03-25T20:39:37.864Z,2.60
2019-03-25T20:42:06.524Z,3.27
2019-03-25T20:44:35.254Z,2.80
2019-03-25T20:47:03.831Z,2.70
2019-03-25T20:49:32.266Z,2.40
2019-03-25T20:52:00.817Z,2.20
2019-03-25T20:54:35.226Z,2.80
2019-03-25T20:57:03.625Z,8.40
2019-03-25T20:59:33.051Z,3.80
2019-03-25T21:02:01.542Z,4.35
2019-03-25T21:04:29.960Z,4.05
2019-03-25T21:07:03.507Z,4.85
2019-03-25T21:09:31.869Z,3.72
2019-03-25T21:12:00.293Z,3.50
2019-03-25T21:14:28.685Z,3.50
2019-03-25T21:16:57.174Z,5.08
2019-03-25T21:19:25.742Z,3.30
2019-03-25T21:21:54.468Z,3.77
2019-03-25T21:24:22.898Z,3.55
2019-03-25T21:26:51.304Z,4.17
2019-03-25T21:29:19.746Z,3.12
2019-03-25T21:31:48.178Z,5.05
2019-03-25T21:34:16.611Z,6.17
2019-03-25T21:36:45.415Z,6.22
2019-03-25T21:39:13.984Z,6.67
2019-03-25T21:41:42.436Z,5.08
2019-03-25T21:44:10.838Z,7.42
2019-03-25T21:46:39.245Z,6.20
2019-03-25T21:49:07.751Z,7.20
2019-03-25T21:51:36.452Z,6.45
2019-03-25T21:54:04.891Z,5.65
2019-03-25T21:56:33.277Z,6.62
2019-03-25T21:59:01.822Z,7.55
2019-03-25T22:01:30.270Z,7.30
2019-03-25T22:03:58.766Z,5.85
2019-03-25T22:06:27.162Z,5.05
2019-03-25T22:08:55.557Z,3.92
2019-03-25T22:11:24.907Z,3.72
2019-03-25T22:13:53.323Z,5.90
2019-03-25T22:16:32.702Z,5.90
2019-03-25T22:19:01.358Z,4.55
2019-03-25T22:21:29.790Z,5.67
2019-03-25T22:23:58.183Z,5.87
2019-03-25T22:26:26.578Z,5.20
2019-03-25T22:28:54.978Z,5.50
2019-03-25T22:31:23.474Z,4.95
2019-03-25T22:33:51.917Z,5.42
2019-03-25T22:36:20.296Z,5.28
2019-03-25T22:38:48.726Z,4.67
2019-03-25T22:41:17.128Z,4.65
2019-03-25T22:43:45.521Z,4.72
2019-03-25T22:46:14.182Z,4.25
2019-03-25T22:48:42.642Z,5.30
2019-03-25T22:51:11.045Z,5.40
2019-03-25T22:53:39.737Z,5.58
2019-03-25T22:56:08.404Z,4.78
2019-03-25T22:58:37.031Z,4.53
2019-03-25T23:01:05.512Z,4.42
2019-03-25T23:03:43.054Z,5.85
2019-03-25T23:06:17.224Z,3.92
2019-03-25T23:08:45.620Z,4.58
2019-03-25T23:11:14.077Z,3.83
2019-03-25T23:13:42.471Z,4.20
2019-03-25T23:16:11.177Z,3.52
2019-03-25T23:18:42.559Z,4.05
2019-03-25T23:21:17.857Z,3.40
2019-03-25T23:23:46.253Z,4.53
2019-03-25T23:26:14.646Z,2.98
2019-03-25T23:28:43.344Z,3.60
2019-03-25T23:31:11.837Z,3.67
2019-03-25T23:33:51.709Z,4.12
2019-03-25T23:36:10.339Z,3.30
2019-03-25T23:38:38.739Z,3.17
2019-03-25T23:41:07.366Z,3.25
2019-03-25T23:43:35.763Z,3.27
2019-03-25T23:46:04.163Z,3.70
2019-03-25T23:48:32.587Z,3.70
2019-03-25T23:51:01.350Z,3.58
2019-03-25T23:53:29.749Z,2.90
2019-03-25T23:55:58.137Z,2.98
2019-03-25T23:58:26.567Z,2.50
